Aérodrome :
LOGIN :

S'inscrire | Disclaimer

   EN    FR    IT 

 










Légende :    VFR   VFR Marginal   IFR   IFR Intensif   IFR Très Intensif
Visi : 
Plafond : 
>= 8 km
>= 3000ft
5 à 8 km
1000 à 3000 ft
1500m à 5 km
500 à 1000 ft
800 à 1500m
200 à 500 ft
< 800m
< 200 ft
Symboles :   Orages  Brouillard  Fortes neiges  Fortes précipitations  Vent > 20 kt
SIGMETs :   Divers  Orages  Givrage  Turbulence  Onde Orograph.  Cendres Volcan.







- Altitude de l'aérodrome : 580 ft
- Voir les cartes d'approche


LFOA - Avord

DERNIER METAR :
  • 180500Z AUTO 22003KT CAVOK 15/12 Q1018 NOSIG

METARs EXPIRÉS :
  • 180430Z AUTO VRB02KT CAVOK 15/12 Q1018
  • 180400Z AUTO 19003KT CAVOK 15/12 Q1018
  • 180330Z AUTO 20002KT CAVOK 16/13 Q1018
  • 180300Z AUTO 24003KT CAVOK 16/13 Q1018
  • 180230Z AUTO 19002KT CAVOK 15/12 Q1018
  • 180200Z AUTO 00000KT CAVOK 15/12 Q1018

TAF AMD TAF LFOA
Valide du 18 à 04h jusqu'au 19 à 03h UTC


180435Z 1804/1903 VRB02KT CAVOK
Pas de NOTAMs connus pour ce terrain.



MET'MAP, la Météo Aéronautique d'un coup d'oeil ! - Copyright ORBIFLY Décembre 2007 - Disclaimer

ORBIFLY MET'MAP TEAM :

Programmation & Développement : Alexandra Zaïnal
Conception & Développement : Baudouin d'Aumeries
Co-Programmation & Développement : Marc-Olivier Méhu
Soutien technique & logistique : Manuel Goepfert

Contact : metmap@orbifly.com




SOURCES & CREDITS :

   NOAA